Station Historical Data
Daily Summary for August 08, 2012 Units:  Both    English   Metric
« Previous Day
Next Day »
Daily Weekly Monthly Yearly Custom
  High: Low: Average:
Temperature: 92.8 °F /  33.8 °C 71.3 °F /  21.8 °C 81.3 °F /  27.4 °C
Dew Point: 77.7 °F /  25.4 °C 68.2 °F /  20.1 °C 72.2 °F /  22.3 °C
Humidity: 92% 45% 76%
Wind Speed: 6.0mph /  9.7km/h - 1.5mph /  2.4km/h
Wind Gust: 6.0mph /  9.7km/h - -
Wind- - SSE
Pressure: 29.97 in /  1014.8 hPa 29.85 in /  1010.7 hPa -
Precipitation: 0.01 in /  0.25 mm    
Historical Graphs
 
 
Tabular Data for August 08, 2012
Time Temperature Dew Point Pressure Wind Wind Speed Wind Gust Humidity Rainfall Rate (Hourly) Conditions
00:00 75.1 °F /  23.9 °C 72.6 °F /  22.6 °C 29.92in /  1013.1hPa Calm     92% 0.00in /  0mm
00:02 75.2 °F /  24 °C 72.7 °F /  22.6 °C 29.92in /  1013.1hPa Calm     92% 0.00in /  0mm
00:07 75.5 °F /  24.2 °C 73.0 °F /  22.8 °C 29.92in /  1013.1hPa Calm     92% 0.00in /  0mm
00:12 75.5 °F /  24.2 °C 73.0 °F /  22.8 °C 29.92in /  1013.1hPa NNE 1.0mph /  1.6km/h 2.0mph /  3.2km/h 92% 0.00in /  0mm
00:17 75.5 °F /  24.2 °C 73.0 °F /  22.8 °C 29.92in /  1013.1hPa NNE 2.0mph /  3.2km/h 2.0mph /  3.2km/h 92% 0.00in /  0mm
00:22 75.7 °F /  24.3 °C 73.2 °F /  22.9 °C 29.92in /  1013.1hPa NE 1.0mph /  1.6km/h 2.0mph /  3.2km/h 92% 0.00in /  0mm
00:27 76.1 °F /  24.5 °C 73.6 °F /  23.1 °C 29.92in /  1013.1hPa NE 1.0mph /  1.6km/h 2.0mph /  3.2km/h 92% 0.00in /  0mm
00:32 76.2 °F /  24.6 °C 73.4 °F /  23 °C 29.92in /  1013.1hPa NE 1.0mph /  1.6km/h 2.0mph /  3.2km/h 91% 0.00in /  0mm
00:37 76.1 °F /  24.5 °C 73.3 °F /  22.9 °C 29.92in /  1013.1hPa NE 2.0mph /  3.2km/h 2.0mph /  3.2km/h 91% 0.00in /  0mm
00:42 76.1 °F /  24.5 °C 73.3 °F /  22.9 °C 29.92in /  1013.1hPa NE 1.0mph /  1.6km/h 3.0mph /  4.8km/h 91% 0.00in /  0mm
00:47 75.9 °F /  24.4 °C 73.1 °F /  22.8 °C 29.92in /  1013.1hPa NE 2.0mph /  3.2km/h 2.0mph /  3.2km/h 91% 0.00in /  0mm
00:52 75.8 °F /  24.3 °C 73.0 °F /  22.8 °C 29.92in /  1013.1hPa NNE 1.0mph /  1.6km/h 2.0mph /  3.2km/h 91% 0.00in /  0mm
00:57 75.7 °F /  24.3 °C 72.9 °F /  22.7 °C 29.93in /  1013.4hPa Calm   1.0mph /  1.6km/h 91% 0.00in /  0mm
01:02 75.5 °F /  24.2 °C 72.7 °F /  22.6 °C 29.93in /  1013.4hPa SE 1.0mph /  1.6km/h 2.0mph /  3.2km/h 91% 0.00in /  0mm
01:07 75.2 °F /  24 °C 72.4 °F /  22.4 °C 29.93in /  1013.4hPa Calm   1.0mph /  1.6km/h 91% 0.00in /  0mm
01:12 75.0 °F /  23.9 °C 72.5 °F /  22.5 °C 29.93in /  1013.4hPa ESE 2.0mph /  3.2km/h 3.0mph /  4.8km/h 92% 0.00in /  0mm
01:17 75.0 °F /  23.9 °C 72.5 °F /  22.5 °C 29.93in /  1013.4hPa SE 1.0mph /  1.6km/h 1.0mph /  1.6km/h 92% 0.00in /  0mm
01:22 74.9 °F /  23.8 °C 72.4 °F /  22.4 °C 29.93in /  1013.4hPa SE 2.0mph /  3.2km/h 2.0mph /  3.2km/h 92% 0.00in /  0mm
01:27 74.7 °F /  23.7 °C 72.2 °F /  22.3 °C 29.94in /  1013.8hPa SE 1.0mph /  1.6km/h 2.0mph /  3.2km/h 92% 0.00in /  0mm
01:32 74.6 °F /  23.7 °C 72.1 °F /  22.3 °C 29.93in /  1013.4hPa ESE 2.0mph /  3.2km/h 2.0mph /  3.2km/h 92% 0.00in /  0mm
01:37 74.6 °F /  23.7 °C 72.1 °F /  22.3 °C 29.93in /  1013.4hPa Calm   2.0mph /  3.2km/h 92% 0.00in /  0mm
01:42 74.7 °F /  23.7 °C 72.2 °F /  22.3 °C 29.93in /  1013.4hPa Calm   2.0mph /  3.2km/h 92% 0.00in /  0mm
01:47 75.0 °F /  23.9 °C 72.5 °F /  22.5 °C 29.92in /  1013.1hPa Calm   2.0mph /  3.2km/h 92% 0.00in /  0mm
01:52 75.2 °F /  24 °C 72.4 °F /  22.4 °C 29.92in /  1013.1hPa Calm   1.0mph /  1.6km/h 91% 0.00in /  0mm
01:58 74.8 °F /  23.8 °C 72.0 °F /  22.2 °C 29.92in /  1013.1hPa East 1.0mph /  1.6km/h 1.0mph /  1.6km/h 91% 0.00in /  0mm
02:02 74.7 °F /  23.7 °C 72.2 °F /  22.3 °C 29.92in /  1013.1hPa Calm   1.0mph /  1.6km/h 92% 0.00in /  0mm
02:08 74.9 °F /  23.8 °C 72.1 °F /  22.3 °C 29.92in /  1013.1hPa ENE 1.0mph /  1.6km/h 1.0mph /  1.6km/h 91% 0.00in /  0mm
02:13 74.7 °F /  23.7 °C 72.2 °F /  22.3 °C 29.92in /  1013.1hPa Calm   1.0mph /  1.6km/h 92% 0.00in /  0mm
02:18 74.6 °F /  23.7 °C 72.1 °F /  22.3 °C 29.92in /  1013.1hPa Calm     92% 0.00in /  0mm
02:23 74.4 °F /  23.6 °C 71.9 °F /  22.2 °C 29.92in /  1013.1hPa Calm     92% 0.00in /  0mm
02:28 74.3 °F /  23.5 °C 71.8 °F /  22.1 °C 29.91in /  1012.8hPa Calm     92% 0.00in /  0mm
02:33 74.4 °F /  23.6 °C 71.9 °F /  22.2 °C 29.91in /  1012.8hPa ENE 1.0mph /  1.6km/h 1.0mph /  1.6km/h 92% 0.00in /  0mm
02:38 74.4 °F /  23.6 °C 71.9 °F /  22.2 °C 29.91in /  1012.8hPa SE 1.0mph /  1.6km/h 1.0mph /  1.6km/h 92% 0.00in /  0mm
02:43 74.5 °F /  23.6 °C 72.0 °F /  22.2 °C 29.91in /  1012.8hPa Calm   1.0mph /  1.6km/h 92% 0.00in /  0mm
02:48 74.2 °F /  23.4 °C 71.4 °F /  21.9 °C 29.91in /  1012.8hPa Calm   1.0mph /  1.6km/h 91% 0.00in /  0mm
02:53 73.9 °F /  23.3 °C 71.4 °F /  21.9 °C 29.91in /  1012.8hPa Calm     92% 0.00in /  0mm
02:58 73.6 °F /  23.1 °C 71.1 °F /  21.7 °C 29.91in /  1012.8hPa Calm     92% 0.00in /  0mm
03:03 73.3 °F /  22.9 °C 70.8 °F /  21.6 °C 29.91in /  1012.8hPa Calm     92% 0.00in /  0mm
03:08 73.1 °F /  22.8 °C 70.6 °F /  21.4 °C 29.91in /  1012.8hPa Calm     92% 0.00in /  0mm
03:13 72.8 °F /  22.7 °C 70.3 °F /  21.3 °C 29.90in /  1012.4hPa Calm     92% 0.00in /  0mm
03:18 72.8 °F /  22.7 °C 70.3 °F /  21.3 °C 29.90in /  1012.4hPa Calm     92% 0.00in /  0mm
03:23 72.9 °F /  22.7 °C 70.4 °F /  21.3 °C 29.91in /  1012.8hPa Calm   1.0mph /  1.6km/h 92% 0.00in /  0mm
03:28 72.9 °F /  22.7 °C 70.4 °F /  21.3 °C 29.90in /  1012.4hPa NNE 1.0mph /  1.6km/h 1.0mph /  1.6km/h 92% 0.00in /  0mm
03:33 72.7 °F /  22.6 °C 70.2 °F /  21.2 °C 29.91in /  1012.8hPa NNW 2.0mph /  3.2km/h 2.0mph /  3.2km/h 92% 0.00in /  0mm
03:38 72.5 °F /  22.5 °C 70.1 °F /  21.2 °C 29.91in /  1012.8hPa North 1.0mph /  1.6km/h 2.0mph /  3.2km/h 92% 0.00in /  0mm
03:43 72.4 °F /  22.4 °C 69.9 °F /  21.1 °C 29.91in /  1012.8hPa NNW 1.0mph /  1.6km/h 1.0mph /  1.6km/h 92% 0.00in /  0mm
03:48 72.5 °F /  22.5 °C 70.1 °F /  21.2 °C 29.91in /  1012.8hPa North 2.0mph /  3.2km/h 2.0mph /  3.2km/h 92% 0.00in /  0mm
03:53 72.4 °F /  22.4 °C 69.9 °F /  21.1 °C 29.91in /  1012.8hPa North 1.0mph /  1.6km/h 2.0mph /  3.2km/h 92% 0.00in /  0mm
03:58 72.3 °F /  22.4 °C 69.8 °F /  21 °C 29.91in /  1012.8hPa North 1.0mph /  1.6km/h 1.0mph /  1.6km/h 92% 0.00in /  0mm
04:03 72.6 °F /  22.6 °C 70.2 °F /  21.2 °C 29.91in /  1012.8hPa NNE 1.0mph /  1.6km/h 2.0mph /  3.2km/h 92% 0.00in /  0mm
04:08 72.5 °F /  22.5 °C 70.1 °F /  21.2 °C 29.90in /  1012.4hPa Calm     92% 0.00in /  0mm
04:13 72.5 °F /  22.5 °C 70.1 °F /  21.2 °C 29.91in /  1012.8hPa Calm     92% 0.00in /  0mm
04:18 72.4 °F /  22.4 °C 69.9 °F /  21.1 °C 29.91in /  1012.8hPa NNE 1.0mph /  1.6km/h 1.0mph /  1.6km/h 92% 0.00in /  0mm
04:23 72.3 °F /  22.4 °C 69.8 °F /  21 °C 29.91in /  1012.8hPa Calm     92% 0.00in /  0mm
04:28 72.1 °F /  22.3 °C 69.7 °F /  20.9 °C 29.91in /  1012.8hPa East 1.0mph /  1.6km/h 1.0mph /  1.6km/h 92% 0.00in /  0mm
04:33 72.1 °F /  22.3 °C 69.7 °F /  20.9 °C 29.91in /  1012.8hPa East 1.0mph /  1.6km/h 1.0mph /  1.6km/h 92% 0.00in /  0mm
04:38 72.2 °F /  22.3 °C 69.8 °F /  21 °C 29.91in /  1012.8hPa Calm     92% 0.00in /  0mm
04:43 71.9 °F /  22.2 °C 69.4 °F /  20.8 °C 29.91in /  1012.8hPa ESE 4.0mph /  6.4km/h 4.0mph /  6.4km/h 92% 0.00in /  0mm
04:48 71.8 °F /  22.1 °C 69.3 °F /  20.7 °C 29.91in /  1012.8hPa ESE 2.0mph /  3.2km/h 3.0mph /  4.8km/h 92% 0.00in /  0mm
04:53 71.8 °F /  22.1 °C 69.3 °F /  20.7 °C 29.91in /  1012.8hPa East 2.0mph /  3.2km/h 3.0mph /  4.8km/h 92% 0.00in /  0mm
04:58 72.0 °F /  22.2 °C 69.6 °F /  20.9 °C 29.91in /  1012.8hPa ESE 2.0mph /  3.2km/h 2.0mph /  3.2km/h 92% 0.00in /  0mm
05:03 71.9 °F /  22.2 °C 69.4 °F /  20.8 °C 29.91in /  1012.8hPa East 1.0mph /  1.6km/h 2.0mph /  3.2km/h 92% 0.00in /  0mm
05:09 71.9 °F /  22.2 °C 69.4 °F /  20.8 °C 29.91in /  1012.8hPa ESE 1.0mph /  1.6km/h 2.0mph /  3.2km/h 92% 0.00in /  0mm
05:14 71.8 °F /  22.1 °C 69.3 °F /  20.7 °C 29.91in /  1012.8hPa Calm   1.0mph /  1.6km/h 92% 0.00in /  0mm
05:19 72.0 °F /  22.2 °C 69.6 °F /  20.9 °C 29.91in /  1012.8hPa Calm   1.0mph /  1.6km/h 92% 0.00in /  0mm
05:24 72.1 °F /  22.3 °C 69.7 °F /  20.9 °C 29.92in /  1013.1hPa Calm   1.0mph /  1.6km/h 92% 0.00in /  0mm
05:29 72.0 °F /  22.2 °C 69.6 °F /  20.9 °C 29.92in /  1013.1hPa Calm     92% 0.00in /  0mm
05:34 71.7 °F /  22.1 °C 69.3 °F /  20.7 °C 29.92in /  1013.1hPa Calm     92% 0.00in /  0mm
05:39 71.6 °F /  22 °C 69.2 °F /  20.7 °C 29.92in /  1013.1hPa NNE 1.0mph /  1.6km/h 2.0mph /  3.2km/h 92% 0.00in /  0mm
05:44 71.6 °F /  22 °C 69.2 °F /  20.7 °C 29.92in /  1013.1hPa Calm   1.0mph /  1.6km/h 92% 0.00in /  0mm
05:49 71.7 °F /  22.1 °C 69.3 °F /  20.7 °C 29.92in /  1013.1hPa Calm     92% 0.00in /  0mm
05:54 71.5 °F /  21.9 °C 69.1 °F /  20.6 °C 29.92in /  1013.1hPa Calm     92% 0.00in /  0mm
05:59 71.7 °F /  22.1 °C 69.3 °F /  20.7 °C 29.92in /  1013.1hPa Calm     92% 0.00in /  0mm
06:04 71.9 °F /  22.2 °C 69.4 °F /  20.8 °C 29.92in /  1013.1hPa ESE 2.0mph /  3.2km/h 2.0mph /  3.2km/h 92% 0.00in /  0mm
06:09 72.1 °F /  22.3 °C 69.7 °F /  20.9 °C 29.92in /  1013.1hPa East 1.0mph /  1.6km/h 2.0mph /  3.2km/h 92% 0.00in /  0mm
06:14 72.2 °F /  22.3 °C 69.8 °F /  21 °C 29.93in /  1013.4hPa ESE 1.0mph /  1.6km/h 2.0mph /  3.2km/h 92% 0.00in /  0mm
06:19 72.1 °F /  22.3 °C 69.7 °F /  20.9 °C 29.93in /  1013.4hPa ESE 3.0mph /  4.8km/h 3.0mph /  4.8km/h 92% 0.00in /  0mm
06:24 72.2 °F /  22.3 °C 69.8 °F /  21 °C 29.93in /  1013.4hPa ESE 2.0mph /  3.2km/h 5.0mph /  8km/h 92% 0.00in /  0mm
06:29 72.2 °F /  22.3 °C 69.8 °F /  21 °C 29.93in /  1013.4hPa Calm   2.0mph /  3.2km/h 92% 0.00in /  0mm
06:34 72.1 °F /  22.3 °C 69.7 °F /  20.9 °C 29.93in /  1013.4hPa Calm     92% 0.00in /  0mm
06:39 72.0 °F /  22.2 °C 69.6 °F /  20.9 °C 29.93in /  1013.4hPa Calm     92% 0.00in /  0mm
06:44 71.8 °F /  22.1 °C 69.3 °F /  20.7 °C 29.93in /  1013.4hPa Calm     92% 0.00in /  0mm
06:49 71.6 °F /  22 °C 69.2 °F /  20.7 °C 29.93in /  1013.4hPa Calm     92% 0.00in /  0mm
06:54 71.4 °F /  21.9 °C 69.0 °F /  20.6 °C 29.93in /  1013.4hPa Calm     92% 0.00in /  0mm
06:59 71.3 °F /  21.8 °C 68.9 °F /  20.5 °C 29.93in /  1013.4hPa Calm     92% 0.00in /  0mm
07:04 71.4 °F /  21.9 °C 69.0 °F /  20.6 °C 29.93in /  1013.4hPa Calm     92% 0.00in /  0mm
07:09 71.7 °F /  22.1 °C 69.3 °F /  20.7 °C 29.93in /  1013.4hPa ESE 1.0mph /  1.6km/h 2.0mph /  3.2km/h 92% 0.00in /  0mm
07:14 71.9 °F /  22.2 °C 69.4 °F /  20.8 °C 29.93in /  1013.4hPa Calm   1.0mph /  1.6km/h 92% 0.00in /  0mm
07:19 71.9 °F /  22.2 °C 69.4 °F /  20.8 °C 29.93in /  1013.4hPa Calm     92% 0.00in /  0mm
07:24 71.9 °F /  22.2 °C 69.4 °F /  20.8 °C 29.93in /  1013.4hPa Calm     92% 0.00in /  0mm
07:29 71.7 °F /  22.1 °C 69.3 °F /  20.7 °C 29.93in /  1013.4hPa Calm     92% 0.00in /  0mm
07:34 72.0 °F /  22.2 °C 69.6 °F /  20.9 °C 29.93in /  1013.4hPa ESE 1.0mph /  1.6km/h 2.0mph /  3.2km/h 92% 0.00in /  0mm
07:39 72.2 °F /  22.3 °C 69.8 °F /  21 °C 29.93in /  1013.4hPa SE 3.0mph /  4.8km/h 3.0mph /  4.8km/h 92% 0.00in /  0mm
07:44 72.7 °F /  22.6 °C 69.9 °F /  21.1 °C 29.93in /  1013.4hPa SSE 3.0mph /  4.8km/h 4.0mph /  6.4km/h 91% 0.00in /  0mm
07:49 72.9 °F /  22.7 °C 70.1 °F /  21.2 °C 29.93in /  1013.4hPa South 2.0mph /  3.2km/h 3.0mph /  4.8km/h 91% 0.00in /  0mm
07:54 73.0 °F /  22.8 °C 70.2 °F /  21.2 °C 29.94in /  1013.8hPa SSE 2.0mph /  3.2km/h 4.0mph /  6.4km/h 91% 0.00in /  0mm
07:59 73.4 °F /  23 °C 70.6 °F /  21.4 °C 29.94in /  1013.8hPa SSE 1.0mph /  1.6km/h 3.0mph /  4.8km/h 91% 0.00in /  0mm
08:04 73.7 °F /  23.2 °C 70.9 °F /  21.6 °C 29.94in /  1013.8hPa SW 1.0mph /  1.6km/h 2.0mph /  3.2km/h 91% 0.00in /  0mm
08:09 73.7 °F /  23.2 °C 70.9 °F /  21.6 °C 29.94in /  1013.8hPa SSW 2.0mph /  3.2km/h 3.0mph /  4.8km/h 91% 0.00in /  0mm
08:14 73.9 °F /  23.3 °C 71.1 °F /  21.7 °C 29.94in /  1013.8hPa Calm   1.0mph /  1.6km/h 91% 0.00in /  0mm
08:19 74.2 °F /  23.4 °C 71.4 °F /  21.9 °C 29.94in /  1013.8hPa Calm   1.0mph /  1.6km/h 91% 0.00in /  0mm
08:24 74.3 °F /  23.5 °C 71.5 °F /  21.9 °C 29.94in /  1013.8hPa West 1.0mph /  1.6km/h 1.0mph /  1.6km/h 91% 0.00in /  0mm
08:29 74.5 °F /  23.6 °C 71.7 °F /  22.1 °C 29.95in /  1014.1hPa SE 1.0mph /  1.6km/h 1.0mph /  1.6km/h 91% 0.00in /  0mm
08:34 74.7 °F /  23.7 °C 71.9 °F /  22.2 °C 29.95in /  1014.1hPa Calm   1.0mph /  1.6km/h 91% 0.00in /  0mm
08:39 74.8 °F /  23.8 °C 72.0 °F /  22.2 °C 29.95in /  1014.1hPa West 1.0mph /  1.6km/h 2.0mph /  3.2km/h 91% 0.00in /  0mm
08:44 74.8 °F /  23.8 °C 72.0 °F /  22.2 °C 29.95in /  1014.1hPa Calm   1.0mph /  1.6km/h 91% 0.00in /  0mm
08:50 75.0 °F /  23.9 °C 72.2 °F /  22.3 °C 29.95in /  1014.1hPa SSW 1.0mph /  1.6km/h 1.0mph /  1.6km/h 91% 0.00in /  0mm
08:55 75.3 °F /  24.1 °C 72.5 °F /  22.5 °C 29.95in /  1014.1hPa SSW 1.0mph /  1.6km/h 1.0mph /  1.6km/h 91% 0.00in /  0mm
09:00 76.2 °F /  24.6 °C 73.4 °F /  23 °C 29.95in /  1014.1hPa Calm     91% 0.00in /  0mm
09:05 76.4 °F /  24.7 °C 73.6 °F /  23.1 °C 29.95in /  1014.1hPa Calm     91% 0.00in /  0mm
09:10 76.2 °F /  24.6 °C 73.4 °F /  23 °C 29.95in /  1014.1hPa Calm     91% 0.00in /  0mm
09:15 76.6 °F /  24.8 °C 73.8 °F /  23.2 °C 29.95in /  1014.1hPa West 2.0mph /  3.2km/h 2.0mph /  3.2km/h 91% 0.00in /  0mm
09:20 76.6 °F /  24.8 °C 74.1 °F /  23.4 °C 29.95in /  1014.1hPa SW 1.0mph /  1.6km/h 2.0mph /  3.2km/h 92% 0.00in /  0mm
09:25 76.6 °F /  24.8 °C 74.1 °F /  23.4 °C 29.95in /  1014.1hPa WSW 2.0mph /  3.2km/h 3.0mph /  4.8km/h 92% 0.00in /  0mm
09:30 77.0 °F /  25 °C 74.5 °F /  23.6 °C 29.96in /  1014.4hPa WSW 2.0mph /  3.2km/h 3.0mph /  4.8km/h 92% 0.00in /  0mm
09:35 77.7 °F /  25.4 °C 75.2 °F /  24 °C 29.96in /  1014.4hPa Calm   3.0mph /  4.8km/h 92% 0.00in /  0mm
09:40 78.5 °F /  25.8 °C 75.7 °F /  24.3 °C 29.96in /  1014.4hPa South 2.0mph /  3.2km/h 3.0mph /  4.8km/h 91% 0.00in /  0mm
09:45 79.2 °F /  26.2 °C 76.0 °F /  24.4 °C 29.96in /  1014.4hPa West 2.0mph /  3.2km/h 2.0mph /  3.2km/h 90% 0.00in /  0mm
09:50 79.5 °F /  26.4 °C 75.6 °F /  24.2 °C 29.96in /  1014.4hPa SW 2.0mph /  3.2km/h 3.0mph /  4.8km/h 88% 0.00in /  0mm
09:55 80.1 °F /  26.7 °C 76.2 °F /  24.6 °C 29.96in /  1014.4hPa SW 3.0mph /  4.8km/h 3.0mph /  4.8km/h 88% 0.00in /  0mm
10:00 80.6 °F /  27 °C 76.4 °F /  24.7 °C 29.96in /  1014.4hPa WSW 2.0mph /  3.2km/h 3.0mph /  4.8km/h 87% 0.00in /  0mm
10:05 81.1 °F /  27.3 °C 76.9 °F /  24.9 °C 29.96in /  1014.4hPa Calm   3.0mph /  4.8km/h 87% 0.00in /  0mm
10:10 81.8 °F /  27.7 °C 77.6 °F /  25.3 °C 29.96in /  1014.4hPa WNW 2.0mph /  3.2km/h 3.0mph /  4.8km/h 87% 0.00in /  0mm
10:15 81.8 °F /  27.7 °C 76.8 °F /  24.9 °C 29.96in /  1014.4hPa WSW 5.0mph /  8km/h 5.0mph /  8km/h 85% 0.00in /  0mm
10:20 81.9 °F /  27.7 °C 77.3 °F /  25.2 °C 29.96in /  1014.4hPa West 3.0mph /  4.8km/h 6.0mph /  9.7km/h 86% 0.00in /  0mm
10:25 82.3 °F /  27.9 °C 77.0 °F /  25 °C 29.96in /  1014.4hPa WNW 3.0mph /  4.8km/h 5.0mph /  8km/h 84% 0.00in /  0mm
10:30 82.8 °F /  28.2 °C 77.5 °F /  25.3 °C 29.96in /  1014.4hPa WNW 2.0mph /  3.2km/h 3.0mph /  4.8km/h 84% 0.00in /  0mm
10:35 83.0 °F /  28.3 °C 77.7 °F /  25.4 °C 29.96in /  1014.4hPa WNW 3.0mph /  4.8km/h 4.0mph /  6.4km/h 84% 0.00in /  0mm
10:40 83.3 °F /  28.5 °C 76.5 °F /  24.7 °C 29.97in /  1014.8hPa West 2.0mph /  3.2km/h 4.0mph /  6.4km/h 80% 0.00in /  0mm
10:45 83.5 °F /  28.6 °C 77.1 °F /  25.1 °C 29.97in /  1014.8hPa WNW 5.0mph /  8km/h 5.0mph /  8km/h 81% 0.00in /  0mm
10:50 83.6 °F /  28.7 °C 77.2 °F /  25.1 °C 29.97in /  1014.8hPa West 2.0mph /  3.2km/h 3.0mph /  4.8km/h 81% 0.00in /  0mm
10:55 83.8 °F /  28.8 °C 77.0 °F /  25 °C 29.97in /  1014.8hPa Calm   4.0mph /  6.4km/h 80% 0.00in /  0mm
11:00 84.4 °F /  29.1 °C 77.2 °F /  25.1 °C 29.97in /  1014.8hPa WNW 3.0mph /  4.8km/h 4.0mph /  6.4km/h 79% 0.00in /  0mm
11:05 84.3 °F /  29.1 °C 77.1 °F /  25.1 °C 29.97in /  1014.8hPa WNW 3.0mph /  4.8km/h 5.0mph /  8km/h 79% 0.00in /  0mm
11:10 84.5 °F /  29.2 °C 76.1 °F /  24.5 °C 29.97in /  1014.8hPa WNW 2.0mph /  3.2km/h 4.0mph /  6.4km/h 76% 0.00in /  0mm
11:15 84.7 °F /  29.3 °C 76.7 °F /  24.8 °C 29.97in /  1014.8hPa Calm   2.0mph /  3.2km/h 77% 0.00in /  0mm
11:20 85.0 °F /  29.4 °C 77.0 °F /  25 °C 29.97in /  1014.8hPa NW 5.0mph /  8km/h 5.0mph /  8km/h 77% 0.00in /  0mm
11:25 85.1 °F /  29.5 °C 76.3 °F /  24.6 °C 29.97in /  1014.8hPa West 2.0mph /  3.2km/h 3.0mph /  4.8km/h 75% 0.00in /  0mm
11:30 85.6 °F /  29.8 °C 77.6 °F /  25.3 °C 29.97in /  1014.8hPa Calm   1.0mph /  1.6km/h 77% 0.00in /  0mm
11:35 86.0 °F /  30 °C 77.2 °F /  25.1 °C 29.97in /  1014.8hPa NNE 1.0mph /  1.6km/h 4.0mph /  6.4km/h 75% 0.00in /  0mm
11:40 86.1 °F /  30.1 °C 76.0 °F /  24.4 °C 29.97in /  1014.8hPa WNW 4.0mph /  6.4km/h 4.0mph /  6.4km/h 72% 0.00in /  0mm
11:45 86.4 °F /  30.2 °C 77.1 °F /  25.1 °C 29.96in /  1014.4hPa West 1.0mph /  1.6km/h 3.0mph /  4.8km/h 74% 0.00in /  0mm
11:50 86.5 °F /  30.3 °C 74.7 °F /  23.7 °C 29.97in /  1014.8hPa WSW 2.0mph /  3.2km/h 3.0mph /  4.8km/h 68% 0.00in /  0mm
11:55 87.3 °F /  30.7 °C 75.9 °F /  24.4 °C 29.96in /  1014.4hPa ENE 3.0mph /  4.8km/h 3.0mph /  4.8km/h 69% 0.00in /  0mm
12:00 87.7 °F /  30.9 °C 76.3 °F /  24.6 °C 29.96in /  1014.4hPa Calm   2.0mph /  3.2km/h 69% 0.00in /  0mm
12:05 88.5 °F /  31.4 °C 76.2 °F /  24.6 °C 29.96in /  1014.4hPa North 2.0mph /  3.2km/h 6.0mph /  9.7km/h 67% 0.00in /  0mm
12:10 88.7 °F /  31.5 °C 75.9 °F /  24.4 °C 29.96in /  1014.4hPa SE 1.0mph /  1.6km/h 2.0mph /  3.2km/h 66% 0.00in /  0mm
12:15 89.2 °F /  31.8 °C 75.9 °F /  24.4 °C 29.96in /  1014.4hPa WNW 2.0mph /  3.2km/h 3.0mph /  4.8km/h 65% 0.00in /  0mm
12:20 88.3 °F /  31.3 °C 73.2 °F /  22.9 °C 29.96in /  1014.4hPa West 1.0mph /  1.6km/h 4.0mph /  6.4km/h 61% 0.00in /  0mm
12:25 88.2 °F /  31.2 °C 74.0 °F /  23.3 °C 29.96in /  1014.4hPa West 1.0mph /  1.6km/h 3.0mph /  4.8km/h 63% 0.00in /  0mm
12:30 88.5 °F /  31.4 °C 71.8 °F /  22.1 °C 29.96in /  1014.4hPa NNW 1.0mph /  1.6km/h 5.0mph /  8km/h 58% 0.00in /  0mm
12:35 88.2 °F /  31.2 °C 72.6 °F /  22.6 °C 29.96in /  1014.4hPa NNE 3.0mph /  4.8km/h 3.0mph /  4.8km/h 60% 0.00in /  0mm
12:40 88.2 °F /  31.2 °C 71.6 °F /  22 °C 29.96in /  1014.4hPa NW 1.0mph /  1.6km/h 4.0mph /  6.4km/h 58% 0.00in /  0mm
12:45 88.4 °F /  31.3 °C 73.2 °F /  22.9 °C 29.96in /  1014.4hPa NNE 2.0mph /  3.2km/h 5.0mph /  8km/h 61% 0.00in /  0mm
12:50 89.1 °F /  31.7 °C 70.8 °F /  21.6 °C 29.96in /  1014.4hPa Calm   4.0mph /  6.4km/h 55% 0.00in /  0mm
12:55 89.9 °F /  32.2 °C 70.5 °F /  21.4 °C 29.95in /  1014.1hPa SSE 1.0mph /  1.6km/h 2.0mph /  3.2km/h 53% 0.00in /  0mm
13:00 90.7 °F /  32.6 °C 73.4 °F /  23 °C 29.95in /  1014.1hPa WNW 2.0mph /  3.2km/h 4.0mph /  6.4km/h 57% 0.00in /  0mm
13:05 89.9 °F /  32.2 °C 71.6 °F /  22 °C 29.95in /  1014.1hPa WNW 2.0mph /  3.2km/h 4.0mph /  6.4km/h 55% 0.00in /  0mm
13:10 88.9 °F /  31.6 °C 72.2 °F /  22.3 °C 29.95in /  1014.1hPa NW 2.0mph /  3.2km/h 2.0mph /  3.2km/h 58% 0.00in /  0mm
13:15 88.5 °F /  31.4 °C 70.8 °F /  21.6 °C 29.95in /  1014.1hPa Calm   1.0mph /  1.6km/h 56% 0.00in /  0mm
13:20 89.1 °F /  31.7 °C 71.4 °F /  21.9 °C 29.95in /  1014.1hPa SSW 4.0mph /  6.4km/h 6.0mph /  9.7km/h 56% 0.00in /  0mm
13:25 89.2 °F /  31.8 °C 71.5 °F /  21.9 °C 29.94in /  1013.8hPa NNW 3.0mph /  4.8km/h 6.0mph /  9.7km/h 56% 0.00in /  0mm
13:30 89.1 °F /  31.7 °C 72.9 °F /  22.7 °C 29.94in /  1013.8hPa West 2.0mph /  3.2km/h 6.0mph /  9.7km/h 59% 0.00in /  0mm
13:35 89.5 °F /  31.9 °C 71.7 °F /  22.1 °C 29.94in /  1013.8hPa Calm   3.0mph /  4.8km/h 56% 0.00in /  0mm
13:40 90.2 °F /  32.3 °C 72.4 °F /  22.4 °C 29.94in /  1013.8hPa NW 1.0mph /  1.6km/h 2.0mph /  3.2km/h 56% 0.00in /  0mm
13:45 89.9 °F /  32.2 °C 71.6 °F /  22 °C 29.94in /  1013.8hPa West 3.0mph /  4.8km/h 5.0mph /  8km/h 55% 0.00in /  0mm
13:50 90.0 °F /  32.2 °C 71.1 °F /  21.7 °C 29.94in /  1013.8hPa East 2.0mph /  3.2km/h 2.0mph /  3.2km/h 54% 0.00in /  0mm
13:55 90.4 °F /  32.4 °C 73.6 °F /  23.1 °C 29.94in /  1013.8hPa WNW 2.0mph /  3.2km/h 4.0mph /  6.4km/h 58% 0.00in /  0mm
14:00 89.9 °F /  32.2 °C 71.6 °F /  22 °C 29.94in /  1013.8hPa North 3.0mph /  4.8km/h 3.0mph /  4.8km/h 55% 0.00in /  0mm
14:05 89.7 °F /  32.1 °C 74.5 °F /  23.6 °C 29.93in /  1013.4hPa NW 2.0mph /  3.2km/h 3.0mph /  4.8km/h 61% 0.00in /  0mm
14:10 89.2 °F /  31.8 °C 71.5 °F /  21.9 °C 29.94in /  1013.8hPa West 1.0mph /  1.6km/h 2.0mph /  3.2km/h 56% 0.00in /  0mm
14:15 89.9 °F /  32.2 °C 73.2 °F /  22.9 °C 29.94in /  1013.8hPa Calm   1.0mph /  1.6km/h 58% 0.00in /  0mm
14:21 90.4 °F /  32.4 °C 72.6 °F /  22.6 °C 29.93in /  1013.4hPa NNW 2.0mph /  3.2km/h 4.0mph /  6.4km/h 56% 0.00in /  0mm
14:26 90.4 °F /  32.4 °C 70.9 °F /  21.6 °C 29.93in /  1013.4hPa NNW 4.0mph /  6.4km/h 5.0mph /  8km/h 53% 0.00in /  0mm
14:31 90.3 °F /  32.4 °C 70.9 °F /  21.6 °C 29.93in /  1013.4hPa NNE 4.0mph /  6.4km/h 5.0mph /  8km/h 53% 0.00in /  0mm
14:36 90.0 °F /  32.2 °C 71.7 °F /  22.1 °C 29.93in /  1013.4hPa NW 4.0mph /  6.4km/h 4.0mph /  6.4km/h 55% 0.00in /  0mm
14:41 90.1 °F /  32.3 °C 70.7 °F /  21.5 °C 29.93in /  1013.4hPa SW 1.0mph /  1.6km/h 2.0mph /  3.2km/h 53% 0.00in /  0mm
14:46 90.1 °F /  32.3 °C 71.2 °F /  21.8 °C 29.93in /  1013.4hPa WSW 2.0mph /  3.2km/h 4.0mph /  6.4km/h 54% 0.00in /  0mm
14:51 90.5 °F /  32.5 °C 69.9 °F /  21.1 °C 29.92in /  1013.1hPa SE 3.0mph /  4.8km/h 4.0mph /  6.4km/h 51% 0.00in /  0mm
14:56 90.1 °F /  32.3 °C 69.0 °F /  20.6 °C 29.92in /  1013.1hPa SW 1.0mph /  1.6km/h 4.0mph /  6.4km/h 50% 0.00in /  0mm
15:01 90.1 °F /  32.3 °C 70.7 °F /  21.5 °C 29.92in /  1013.1hPa SE 3.0mph /  4.8km/h 3.0mph /  4.8km/h 53% 0.00in /  0mm
15:06 90.3 °F /  32.4 °C 69.2 °F /  20.7 °C 29.92in /  1013.1hPa East 2.0mph /  3.2km/h 2.0mph /  3.2km/h 50% 0.00in /  0mm
15:11 90.8 °F /  32.7 °C 71.3 °F /  21.8 °C 29.92in /  1013.1hPa East 2.0mph /  3.2km/h 2.0mph /  3.2km/h 53% 0.00in /  0mm
15:16 90.9 °F /  32.7 °C 70.3 °F /  21.3 °C 29.91in /  1012.8hPa NW 2.0mph /  3.2km/h 4.0mph /  6.4km/h 51% 0.00in /  0mm
15:21 91.0 °F /  32.8 °C 69.8 °F /  21 °C 29.91in /  1012.8hPa NW 3.0mph /  4.8km/h 5.0mph /  8km/h 50% 0.00in /  0mm
15:26 90.8 °F /  32.7 °C 68.4 °F /  20.2 °C 29.91in /  1012.8hPa North 2.0mph /  3.2km/h 3.0mph /  4.8km/h 48% 0.00in /  0mm
15:31 90.8 °F /  32.7 °C 69.0 °F /  20.6 °C 29.91in /  1012.8hPa NNW 2.0mph /  3.2km/h 5.0mph /  8km/h 49% 0.00in /  0mm
15:37 90.9 °F /  32.7 °C 69.1 °F /  20.6 °C 29.91in /  1012.8hPa Calm   2.0mph /  3.2km/h 49% 0.00in /  0mm
15:42 91.2 °F /  32.9 °C 68.2 °F /  20.1 °C 29.90in /  1012.4hPa Calm   5.0mph /  8km/h 47% 0.00in /  0mm
15:47 91.7 °F /  33.2 °C 69.8 °F /  21 °C 29.90in /  1012.4hPa NNE 2.0mph /  3.2km/h 6.0mph /  9.7km/h 49% 0.00in /  0mm
15:52 91.8 °F /  33.2 °C 70.5 °F /  21.4 °C 29.90in /  1012.4hPa WSW 1.0mph /  1.6km/h 5.0mph /  8km/h 50% 0.00in /  0mm
15:57 91.3 °F /  32.9 °C 70.1 °F /  21.2 °C 29.90in /  1012.4hPa NW 2.0mph /  3.2km/h 6.0mph /  9.7km/h 50% 0.00in /  0mm
16:02 91.3 °F /  32.9 °C 71.2 °F /  21.8 °C 29.90in /  1012.4hPa NW 3.0mph /  4.8km/h 3.0mph /  4.8km/h 52% 0.00in /  0mm
16:07 91.2 °F /  32.9 °C 70.0 °F /  21.1 °C 29.89in /  1012.1hPa NNE 3.0mph /  4.8km/h 5.0mph /  8km/h 50% 0.00in /  0mm
16:12 91.0 °F /  32.8 °C 70.4 °F /  21.3 °C 29.89in /  1012.1hPa NE 3.0mph /  4.8km/h 5.0mph /  8km/h 51% 0.00in /  0mm
16:17 90.8 °F /  32.7 °C 71.9 °F /  22.2 °C 29.89in /  1012.1hPa Calm   3.0mph /  4.8km/h 54% 0.00in /  0mm
16:22 91.0 °F /  32.8 °C 69.8 °F /  21 °C 29.89in /  1012.1hPa NW 2.0mph /  3.2km/h 3.0mph /  4.8km/h 50% 0.00in /  0mm
16:27 91.1 °F /  32.8 °C 69.9 °F /  21.1 °C 29.88in /  1011.7hPa WNW 4.0mph /  6.4km/h 4.0mph /  6.4km/h 50% 0.00in /  0mm
16:32 91.1 °F /  32.8 °C 71.0 °F /  21.7 °C 29.88in /  1011.7hPa West 1.0mph /  1.6km/h 2.0mph /  3.2km/h 52% 0.00in /  0mm
16:37 91.5 °F /  33.1 °C 71.4 °F /  21.9 °C 29.88in /  1011.7hPa ENE 2.0mph /  3.2km/h 3.0mph /  4.8km/h 52% 0.00in /  0mm
16:42 91.7 °F /  33.2 °C 71.6 °F /  22 °C 29.88in /  1011.7hPa NNE 1.0mph /  1.6km/h 2.0mph /  3.2km/h 52% 0.00in /  0mm
16:47 91.9 °F /  33.3 °C 70.0 °F /  21.1 °C 29.88in /  1011.7hPa NE 1.0mph /  1.6km/h 4.0mph /  6.4km/h 49% 0.00in /  0mm
16:52 91.7 °F /  33.2 °C 70.4 °F /  21.3 °C 29.88in /  1011.7hPa ESE 3.0mph /  4.8km/h 4.0mph /  6.4km/h 50% 0.00in /  0mm
16:57 91.2 °F /  32.9 °C 69.4 °F /  20.8 °C 29.88in /  1011.7hPa SE 1.0mph /  1.6km/h 3.0mph /  4.8km/h 49% 0.00in /  0mm
17:02 91.1 °F /  32.8 °C 69.3 °F /  20.7 °C 29.88in /  1011.7hPa East 3.0mph /  4.8km/h 4.0mph /  6.4km/h 49% 0.00in /  0mm
17:07 91.0 °F /  32.8 °C 69.8 °F /  21 °C 29.88in /  1011.7hPa East 1.0mph /  1.6km/h 3.0mph /  4.8km/h 50% 0.00in /  0mm
17:12 91.3 °F /  32.9 °C 69.5 °F /  20.8 °C 29.88in /  1011.7hPa SE 2.0mph /  3.2km/h 2.0mph /  3.2km/h 49% 0.00in /  0mm
17:17 91.6 °F /  33.1 °C 72.1 °F /  22.3 °C 29.87in /  1011.4hPa ESE 2.0mph /  3.2km/h 3.0mph /  4.8km/h 53% 0.00in /  0mm
17:22 91.8 °F /  33.2 °C 68.7 °F /  20.4 °C 29.87in /  1011.4hPa East 1.0mph /  1.6km/h 2.0mph /  3.2km/h 47% 0.00in /  0mm
17:27 92.6 °F /  33.7 °C 69.4 °F /  20.8 °C 29.87in /  1011.4hPa Calm   2.0mph /  3.2km/h 47% 0.00in /  0mm
17:32 92.8 °F /  33.8 °C 68.4 °F /  20.2 °C 29.87in /  1011.4hPa ESE 3.0mph /  4.8km/h 3.0mph /  4.8km/h 45% 0.00in /  0mm
17:37 92.1 °F /  33.4 °C 69.6 °F /  20.9 °C 29.87in /  1011.4hPa East 2.0mph /  3.2km/h 4.0mph /  6.4km/h 48% 0.00in /  0mm
17:42 91.6 °F /  33.1 °C 71.5 °F /  21.9 °C 29.86in /  1011.1hPa ESE 5.0mph /  8km/h 6.0mph /  9.7km/h 52% 0.00in /  0mm
17:47 91.4 °F /  33 °C 71.9 °F /  22.2 °C 29.86in /  1011.1hPa ESE 3.0mph /  4.8km/h 4.0mph /  6.4km/h 53% 0.00in /  0mm
17:52 90.9 °F /  32.7 °C 74.1 °F /  23.4 °C 29.86in /  1011.1hPa SE 2.0mph /  3.2km/h 5.0mph /  8km/h 58% 0.00in /  0mm
17:57 90.7 °F /  32.6 °C 70.7 °F /  21.5 °C 29.86in /  1011.1hPa SE 2.0mph /  3.2km/h 5.0mph /  8km/h 52% 0.00in /  0mm
18:02 90.6 °F /  32.6 °C 72.2 °F /  22.3 °C 29.86in /  1011.1hPa ESE 6.0mph /  9.7km/h 6.0mph /  9.7km/h 55% 0.00in /  0mm
18:07 90.4 °F /  32.4 °C 73.1 °F /  22.8 °C 29.86in /  1011.1hPa ESE 3.0mph /  4.8km/h 5.0mph /  8km/h 57% 0.00in /  0mm
18:12 90.5 °F /  32.5 °C 72.7 °F /  22.6 °C 29.86in /  1011.1hPa ESE 4.0mph /  6.4km/h 4.0mph /  6.4km/h 56% 0.00in /  0mm
18:17 90.4 °F /  32.4 °C 71.5 °F /  21.9 °C 29.86in /  1011.1hPa East 4.0mph /  6.4km/h 4.0mph /  6.4km/h 54% 0.00in /  0mm
18:22 90.5 °F /  32.5 °C 72.7 °F /  22.6 °C 29.86in /  1011.1hPa SE 3.0mph /  4.8km/h 5.0mph /  8km/h 56% 0.00in /  0mm
18:27 90.4 °F /  32.4 °C 72.6 °F /  22.6 °C 29.85in /  1010.7hPa SE 2.0mph /  3.2km/h 3.0mph /  4.8km/h 56% 0.00in /  0mm
18:32 90.4 °F /  32.4 °C 72.6 °F /  22.6 °C 29.85in /  1010.7hPa SE 3.0mph /  4.8km/h 4.0mph /  6.4km/h 56% 0.00in /  0mm
18:38 90.2 °F /  32.3 °C 72.9 °F /  22.7 °C 29.85in /  1010.7hPa SE 4.0mph /  6.4km/h 4.0mph /  6.4km/h 57% 0.00in /  0mm
18:43 90.0 °F /  32.2 °C 71.7 °F /  22.1 °C 29.86in /  1011.1hPa SE 2.0mph /  3.2km/h 5.0mph /  8km/h 55% 0.00in /  0mm
18:48 90.1 °F /  32.3 °C 71.2 °F /  21.8 °C 29.86in /  1011.1hPa SE 3.0mph /  4.8km/h 3.0mph /  4.8km/h 54% 0.00in /  0mm
18:53 90.2 °F /  32.3 °C 71.9 °F /  22.2 °C 29.86in /  1011.1hPa SSE 2.0mph /  3.2km/h 2.0mph /  3.2km/h 55% 0.00in /  0mm
18:58 90.2 °F /  32.3 °C 72.9 °F /  22.7 °C 29.86in /  1011.1hPa SSE 1.0mph /  1.6km/h 2.0mph /  3.2km/h 57% 0.00in /  0mm
19:03 89.7 °F /  32.1 °C 71.9 °F /  22.2 °C 29.86in /  1011.1hPa SE 1.0mph /  1.6km/h 2.0mph /  3.2km/h 56% 0.00in /  0mm
19:08 89.4 °F /  31.9 °C 72.2 °F /  22.3 °C 29.86in /  1011.1hPa SE 2.0mph /  3.2km/h 3.0mph /  4.8km/h 57% 0.00in /  0mm
19:13 89.3 °F /  31.8 °C 73.1 °F /  22.8 °C 29.86in /  1011.1hPa SE 2.0mph /  3.2km/h 3.0mph /  4.8km/h 59% 0.00in /  0mm
19:18 88.9 °F /  31.6 °C 73.2 °F /  22.9 °C 29.86in /  1011.1hPa SE 2.0mph /  3.2km/h 4.0mph /  6.4km/h 60% 0.00in /  0mm
19:23 88.4 °F /  31.3 °C 73.2 °F /  22.9 °C 29.86in /  1011.1hPa SSE 2.0mph /  3.2km/h 2.0mph /  3.2km/h 61% 0.00in /  0mm
19:28 88.2 °F /  31.2 °C 74.5 °F /  23.6 °C 29.86in /  1011.1hPa SE 1.0mph /  1.6km/h 2.0mph /  3.2km/h 64% 0.00in /  0mm
19:33 87.7 °F /  30.9 °C 72.1 °F /  22.3 °C 29.86in /  1011.1hPa SE 2.0mph /  3.2km/h 2.0mph /  3.2km/h 60% 0.00in /  0mm
19:38 87.5 °F /  30.8 °C 71.9 °F /  22.2 °C 29.86in /  1011.1hPa SE 2.0mph /  3.2km/h 2.0mph /  3.2km/h 60% 0.00in /  0mm
19:43 87.0 °F /  30.6 °C 72.4 °F /  22.4 °C 29.86in /  1011.1hPa SE 1.0mph /  1.6km/h 2.0mph /  3.2km/h 62% 0.00in /  0mm
19:48 86.4 °F /  30.2 °C 73.7 °F /  23.2 °C 29.86in /  1011.1hPa SE 1.0mph /  1.6km/h 1.0mph /  1.6km/h 66% 0.00in /  0mm
19:53 85.8 °F /  29.9 °C 73.6 °F /  23.1 °C 29.86in /  1011.1hPa SSE 1.0mph /  1.6km/h 2.0mph /  3.2km/h 67% 0.00in /  0mm
19:58 85.2 °F /  29.6 °C 73.4 °F /  23 °C 29.86in /  1011.1hPa SE 2.0mph /  3.2km/h 2.0mph /  3.2km/h 68% 0.00in /  0mm
20:03 84.7 °F /  29.3 °C 73.0 °F /  22.8 °C 29.86in /  1011.1hPa Calm   1.0mph /  1.6km/h 68% 0.00in /  0mm
20:08 84.7 °F /  29.3 °C 73.4 °F /  23 °C 29.86in /  1011.1hPa SSE 1.0mph /  1.6km/h 2.0mph /  3.2km/h 69% 0.00in /  0mm
20:13 84.5 °F /  29.2 °C 74.9 °F /  23.8 °C 29.86in /  1011.1hPa SSE 1.0mph /  1.6km/h 1.0mph /  1.6km/h 73% 0.00in /  0mm
20:18 84.0 °F /  28.9 °C 74.0 °F /  23.3 °C 29.86in /  1011.1hPa SSE 2.0mph /  3.2km/h 2.0mph /  3.2km/h 72% 0.00in /  0mm
20:23 83.7 °F /  28.7 °C 74.5 °F /  23.6 °C 29.86in /  1011.1hPa SSE 1.0mph /  1.6km/h 2.0mph /  3.2km/h 74% 0.00in /  0mm
20:28 83.5 °F /  28.6 °C 73.9 °F /  23.3 °C 29.87in /  1011.4hPa SSE 2.0mph /  3.2km/h 2.0mph /  3.2km/h 73% 0.00in /  0mm
20:33 83.3 °F /  28.5 °C 73.8 °F /  23.2 °C 29.86in /  1011.1hPa SE 1.0mph /  1.6km/h 2.0mph /  3.2km/h 73% 0.00in /  0mm
20:39 83.1 °F /  28.4 °C 74.0 °F /  23.3 °C 29.86in /  1011.1hPa ESE 1.0mph /  1.6km/h 2.0mph /  3.2km/h 74% 0.00in /  0mm
20:44 82.6 °F /  28.1 °C 73.9 °F /  23.3 °C 29.86in /  1011.1hPa ESE 1.0mph /  1.6km/h 1.0mph /  1.6km/h 75% 0.00in /  0mm
20:49 82.2 °F /  27.9 °C 73.9 °F /  23.3 °C 29.87in /  1011.4hPa ESE 1.0mph /  1.6km/h 2.0mph /  3.2km/h 76% 0.00in /  0mm
20:54 81.8 °F /  27.7 °C 73.5 °F /  23.1 °C 29.87in /  1011.4hPa ESE 2.0mph /  3.2km/h 3.0mph /  4.8km/h 76% 0.00in /  0mm
20:59 82.0 °F /  27.8 °C 73.3 °F /  22.9 °C 29.87in /  1011.4hPa SE 2.0mph /  3.2km/h 3.0mph /  4.8km/h 75% 0.00in /  0mm
21:04 82.1 °F /  27.8 °C 73.0 °F /  22.8 °C 29.87in /  1011.4hPa ESE 2.0mph /  3.2km/h 3.0mph /  4.8km/h 74% 0.00in /  0mm
21:09 82.2 °F /  27.9 °C 73.1 °F /  22.8 °C 29.87in /  1011.4hPa ESE 3.0mph /  4.8km/h 4.0mph /  6.4km/h 74% 0.00in /  0mm
21:14 82.0 °F /  27.8 °C 73.3 °F /  22.9 °C 29.87in /  1011.4hPa ESE 3.0mph /  4.8km/h 3.0mph /  4.8km/h 75% 0.00in /  0mm
21:19 81.9 °F /  27.7 °C 73.2 °F /  22.9 °C 29.87in /  1011.4hPa ESE 3.0mph /  4.8km/h 3.0mph /  4.8km/h 75% 0.00in /  0mm
21:24 81.8 °F /  27.7 °C 73.1 °F /  22.8 °C 29.87in /  1011.4hPa ESE 2.0mph /  3.2km/h 3.0mph /  4.8km/h 75% 0.00in /  0mm
21:29 81.5 °F /  27.5 °C 72.8 °F /  22.7 °C 29.87in /  1011.4hPa East 2.0mph /  3.2km/h 3.0mph /  4.8km/h 75% 0.00in /  0mm
21:34 81.4 °F /  27.4 °C 72.7 °F /  22.6 °C 29.87in /  1011.4hPa ESE 3.0mph /  4.8km/h 3.0mph /  4.8km/h 75% 0.00in /  0mm
21:39 81.3 °F /  27.4 °C 72.6 °F /  22.6 °C 29.88in /  1011.7hPa ESE 2.0mph /  3.2km/h 3.0mph /  4.8km/h 75% 0.00in /  0mm
21:44 80.9 °F /  27.2 °C 72.6 °F /  22.6 °C 29.88in /  1011.7hPa SE 2.0mph /  3.2km/h 2.0mph /  3.2km/h 76% 0.00in /  0mm
21:49 80.8 °F /  27.1 °C 72.5 °F /  22.5 °C 29.88in /  1011.7hPa ESE 3.0mph /  4.8km/h 4.0mph /  6.4km/h 76% 0.00in /  0mm
21:54 80.9 °F /  27.2 °C 72.6 °F /  22.6 °C 29.88in /  1011.7hPa ESE 4.0mph /  6.4km/h 4.0mph /  6.4km/h 76% 0.00in /  0mm
21:59 80.9 °F /  27.2 °C 72.6 °F /  22.6 °C 29.88in /  1011.7hPa ESE 3.0mph /  4.8km/h 4.0mph /  6.4km/h 76% 0.00in /  0mm
22:04 80.8 °F /  27.1 °C 72.5 °F /  22.5 °C 29.88in /  1011.7hPa ESE 4.0mph /  6.4km/h 4.0mph /  6.4km/h 76% 0.00in /  0mm
22:10 80.8 °F /  27.1 °C 72.5 °F /  22.5 °C 29.88in /  1011.7hPa ESE 2.0mph /  3.2km/h 4.0mph /  6.4km/h 76% 0.00in /  0mm
22:15 80.8 °F /  27.1 °C 72.5 °F /  22.5 °C 29.88in /  1011.7hPa SE 2.0mph /  3.2km/h 3.0mph /  4.8km/h 76% 0.00in /  0mm
22:20 80.7 °F /  27.1 °C 72.8 °F /  22.7 °C 29.89in /  1012.1hPa SE 1.0mph /  1.6km/h 3.0mph /  4.8km/h 77% 0.00in /  0mm
22:25 80.4 °F /  26.9 °C 72.9 °F /  22.7 °C 29.89in /  1012.1hPa Calm   1.0mph /  1.6km/h 78% 0.00in /  0mm
22:30 80.2 °F /  26.8 °C 72.7 °F /  22.6 °C 29.89in /  1012.1hPa Calm     78% 0.00in /  0mm
22:35 80.0 °F /  26.7 °C 72.9 °F /  22.7 °C 29.89in /  1012.1hPa Calm     79% 0.00in /  0mm
22:40 80.0 °F /  26.7 °C 72.9 °F /  22.7 °C 29.89in /  1012.1hPa SE 1.0mph /  1.6km/h 1.0mph /  1.6km/h 79% 0.00in /  0mm
22:45 79.9 °F /  26.6 °C 73.2 °F /  22.9 °C 29.89in /  1012.1hPa SE 1.0mph /  1.6km/h 1.0mph /  1.6km/h 80% 0.00in /  0mm
22:50 79.8 °F /  26.6 °C 73.1 °F /  22.8 °C 29.89in /  1012.1hPa SE 1.0mph /  1.6km/h 1.0mph /  1.6km/h 80% 0.00in /  0mm
22:55 80.0 °F /  26.7 °C 73.3 °F /  22.9 °C 29.89in /  1012.1hPa SE 1.0mph /  1.6km/h 2.0mph /  3.2km/h 80% 0.00in /  0mm
23:00 80.1 °F /  26.7 °C 73.4 °F /  23 °C 29.89in /  1012.1hPa SE 1.0mph /  1.6km/h 2.0mph /  3.2km/h 80% 0.00in /  0mm
23:05 80.1 °F /  26.7 °C 73.4 °F /  23 °C 29.89in /  1012.1hPa SE 1.0mph /  1.6km/h 1.0mph /  1.6km/h 80% 0.00in /  0mm
23:10 80.0 °F /  26.7 °C 73.3 °F /  22.9 °C 29.89in /  1012.1hPa ESE 2.0mph /  3.2km/h 3.0mph /  4.8km/h 80% 0.00in /  0mm
23:15 79.9 °F /  26.6 °C 73.6 °F /  23.1 °C 29.89in /  1012.1hPa ESE 2.0mph /  3.2km/h 3.0mph /  4.8km/h 81% 0.00in /  0mm
23:20 79.9 °F /  26.6 °C 73.6 °F /  23.1 °C 29.89in /  1012.1hPa SE 3.0mph /  4.8km/h 3.0mph /  4.8km/h 81% 0.00in /  0mm
23:25 80.0 °F /  26.7 °C 73.7 °F /  23.2 °C 29.89in /  1012.1hPa SE 2.0mph /  3.2km/h 2.0mph /  3.2km/h 81% 0.00in /  0mm
23:30 79.9 °F /  26.6 °C 73.6 °F /  23.1 °C 29.89in /  1012.1hPa SE 1.0mph /  1.6km/h 2.0mph /  3.2km/h 81% 0.00in /  0mm
23:35 79.8 °F /  26.6 °C 73.4 °F /  23 °C 29.89in /  1012.1hPa SE 2.0mph /  3.2km/h 2.0mph /  3.2km/h 81% 0.00in /  0mm
23:40 79.9 °F /  26.6 °C 73.6 °F /  23.1 °C 29.89in /  1012.1hPa ESE 2.0mph /  3.2km/h 3.0mph /  4.8km/h 81% 0.00in /  0mm
23:45 79.8 °F /  26.6 °C 73.8 °F /  23.2 °C 29.89in /  1012.1hPa ESE 2.0mph /  3.2km/h 2.0mph /  3.2km/h 82% 0.00in /  0mm
23:50 79.4 °F /  26.3 °C 73.4 °F /  23 °C 29.89in /  1012.1hPa East 2.0mph /  3.2km/h 2.0mph /  3.2km/h 82% 0.00in /  0mm
23:55 79.2 °F /  26.2 °C 73.6 °F /  23.1 °C 29.89in /  1012.1hPa ESE 1.0mph /  1.6km/h 2.0mph /  3.2km/h 83% 0.00in /  0mm
Compliments of Weather Underground